sensor_id;sensor_type;location;lat;lon;timestamp;pressure;altitude;pressure_sealevel;temperature;humidity
9521;BME280;4798;41.574;23.734;2023-04-19T00:02:05;94834.22;;;12.68;100.00
9521;BME280;4798;41.574;23.734;2023-04-19T00:04:34;94819.31;;;12.67;100.00
9521;BME280;4798;41.574;23.734;2023-04-19T00:07:04;94824.38;;;12.69;100.00
9521;BME280;4798;41.574;23.734;2023-04-19T00:09:32;94824.25;;;12.60;100.00
9521;BME280;4798;41.574;23.734;2023-04-19T00:12:02;94806.13;;;12.49;100.00
9521;BME280;4798;41.574;23.734;2023-04-19T00:14:30;94826.41;;;12.58;100.00
9521;BME280;4798;41.574;23.734;2023-04-19T00:16:59;94831.63;;;12.63;100.00
9521;BME280;4798;41.574;23.734;2023-04-19T00:19:27;94822.59;;;12.64;100.00
9521;BME280;4798;41.574;23.734;2023-04-19T00:21:55;94819.94;;;12.64;100.00
9521;BME280;4798;41.574;23.734;2023-04-19T00:24:24;94806.31;;;12.52;100.00
9521;BME280;4798;41.574;23.734;2023-04-19T00:26:52;94822.38;;;12.61;100.00
9521;BME280;4798;41.574;23.734;2023-04-19T00:29:22;94813.63;;;12.60;100.00
9521;BME280;4798;41.574;23.734;2023-04-19T00:31:50;94810.88;;;12.65;100.00
9521;BME280;4798;41.574;23.734;2023-04-19T00:34:18;94804.81;;;12.33;100.00
9521;BME280;4798;41.574;23.734;2023-04-19T00:36:47;94822.53;;;11.68;100.00
9521;BME280;4798;41.574;23.734;2023-04-19T00:39:15;94812.63;;;11.55;100.00
9521;BME280;4798;41.574;23.734;2023-04-19T00:41:44;94819.06;;;11.72;100.00
9521;BME280;4798;41.574;23.734;2023-04-19T00:44:12;94791.19;;;11.51;100.00
9521;BME280;4798;41.574;23.734;2023-04-19T00:46:42;94769.38;;;11.54;100.00
9521;BME280;4798;41.574;23.734;2023-04-19T00:49:11;94768.53;;;11.77;100.00
9521;BME280;4798;41.574;23.734;2023-04-19T00:51:39;94819.75;;;12.29;100.00
9521;BME280;4798;41.574;23.734;2023-04-19T00:54:08;94760.38;;;12.06;100.00
9521;BME280;4798;41.574;23.734;2023-04-19T00:56:37;94761.84;;;12.12;100.00
9521;BME280;4798;41.574;23.734;2023-04-19T00:59:07;94800.00;;;12.48;100.00
9521;BME280;4798;41.574;23.734;2023-04-19T01:01:36;94815.38;;;12.51;100.00
9521;BME280;4798;41.574;23.734;2023-04-19T01:04:06;94799.22;;;12.48;100.00
9521;BME280;4798;41.574;23.734;2023-04-19T01:06:35;94811.50;;;12.30;100.00
9521;BME280;4798;41.574;23.734;2023-04-19T01:09:04;94802.75;;;12.43;100.00
9521;BME280;4798;41.574;23.734;2023-04-19T01:11:33;94805.72;;;12.55;100.00
9521;BME280;4798;41.574;23.734;2023-04-19T01:14:01;94792.34;;;12.47;100.00
9521;BME280;4798;41.574;23.734;2023-04-19T01:16:30;94784.34;;;12.33;100.00
9521;BME280;4798;41.574;23.734;2023-04-19T01:18:59;94795.19;;;12.50;100.00
9521;BME280;4798;41.574;23.734;2023-04-19T01:21:29;94797.66;;;12.15;100.00
9521;BME280;4798;41.574;23.734;2023-04-19T01:23:59;94790.81;;;12.27;100.00
9521;BME280;4798;41.574;23.734;2023-04-19T01:26:27;94796.47;;;12.39;100.00
9521;BME280;4798;41.574;23.734;2023-04-19T01:28:56;94789.78;;;12.42;100.00
9521;BME280;4798;41.574;23.734;2023-04-19T01:31:24;94788.19;;;12.41;100.00
9521;BME280;4798;41.574;23.734;2023-04-19T01:33:52;94782.97;;;12.36;100.00
9521;BME280;4798;41.574;23.734;2023-04-19T01:36:21;94782.09;;;12.40;100.00
9521;BME280;4798;41.574;23.734;2023-04-19T01:38:49;94759.31;;;12.21;100.00
9521;BME280;4798;41.574;23.734;2023-04-19T01:41:19;94726.72;;;12.01;100.00
9521;BME280;4798;41.574;23.734;2023-04-19T01:43:48;94781.38;;;12.35;100.00
9521;BME280;4798;41.574;23.734;2023-04-19T01:46:16;94783.34;;;12.29;100.00
9521;BME280;4798;41.574;23.734;2023-04-19T01:48:45;94789.59;;;12.06;100.00
9521;BME280;4798;41.574;23.734;2023-04-19T01:51:13;94794.50;;;11.99;100.00
9521;BME280;4798;41.574;23.734;2023-04-19T01:53:43;94790.41;;;11.88;100.00
9521;BME280;4798;41.574;23.734;2023-04-19T01:56:11;94787.13;;;12.09;100.00
9521;BME280;4798;41.574;23.734;2023-04-19T01:58:41;94777.50;;;12.14;100.00
9521;BME280;4798;41.574;23.734;2023-04-19T02:01:09;94775.44;;;12.10;100.00
9521;BME280;4798;41.574;23.734;2023-04-19T02:03:39;94781.81;;;12.09;100.00
9521;BME280;4798;41.574;23.734;2023-04-19T02:06:09;94747.81;;;11.42;100.00
9521;BME280;4798;41.574;23.734;2023-04-19T02:08:38;94780.50;;;11.37;100.00
9521;BME280;4798;41.574;23.734;2023-04-19T02:11:07;94788.94;;;11.21;100.00
9521;BME280;4798;41.574;23.734;2023-04-19T02:13:35;94748.81;;;10.90;100.00
9521;BME280;4798;41.574;23.734;2023-04-19T02:16:06;94791.47;;;11.49;100.00
9521;BME280;4798;41.574;23.734;2023-04-19T02:18:34;94783.88;;;11.80;100.00
9521;BME280;4798;41.574;23.734;2023-04-19T02:21:05;94780.84;;;11.87;100.00
9521;BME280;4798;41.574;23.734;2023-04-19T02:23:34;94788.66;;;11.97;100.00
9521;BME280;4798;41.574;23.734;2023-04-19T02:26:02;94774.97;;;11.90;100.00
9521;BME280;4798;41.574;23.734;2023-04-19T02:28:31;94720.47;;;11.41;100.00
9521;BME280;4798;41.574;23.734;2023-04-19T02:31:03;94771.41;;;11.81;100.00
9521;BME280;4798;41.574;23.734;2023-04-19T02:33:33;94782.31;;;11.79;100.00
9521;BME280;4798;41.574;23.734;2023-04-19T02:36:01;94778.00;;;11.65;100.00
9521;BME280;4798;41.574;23.734;2023-04-19T02:38:30;94774.84;;;11.44;100.00
9521;BME280;4798;41.574;23.734;2023-04-19T02:40:58;94780.94;;;11.44;100.00
9521;BME280;4798;41.574;23.734;2023-04-19T02:43:30;94772.75;;;11.22;100.00
9521;BME280;4798;41.574;23.734;2023-04-19T02:45:58;94775.25;;;11.14;100.00
9521;BME280;4798;41.574;23.734;2023-04-19T02:48:27;94764.72;;;10.90;100.00
9521;BME280;4798;41.574;23.734;2023-04-19T02:51:15;94774.38;;;11.18;100.00
9521;BME280;4798;41.574;23.734;2023-04-19T02:53:44;94785.66;;;11.10;100.00
9521;BME280;4798;41.574;23.734;2023-04-19T02:56:12;94775.91;;;11.24;100.00
9521;BME280;4798;41.574;23.734;2023-04-19T02:58:41;94772.97;;;11.26;100.00
9521;BME280;4798;41.574;23.734;2023-04-19T03:01:09;94775.25;;;11.14;100.00
9521;BME280;4798;41.574;23.734;2023-04-19T03:03:38;94774.69;;;11.17;100.00
9521;BME280;4798;41.574;23.734;2023-04-19T03:06:07;94772.16;;;11.07;100.00
9521;BME280;4798;41.574;23.734;2023-04-19T03:08:37;94772.75;;;11.22;100.00
9521;BME280;4798;41.574;23.734;2023-04-19T03:11:05;94774.81;;;11.07;100.00
9521;BME280;4798;41.574;23.734;2023-04-19T03:13:33;94772.72;;;11.04;100.00
9521;BME280;4798;41.574;23.734;2023-04-19T03:16:02;94768.28;;;10.99;100.00
9521;BME280;4798;41.574;23.734;2023-04-19T03:18:31;94749.22;;;10.97;100.00
9521;BME280;4798;41.574;23.734;2023-04-19T03:21:00;94776.47;;;11.21;100.00
9521;BME280;4798;41.574;23.734;2023-04-19T03:23:29;94780.09;;;11.30;100.00
9521;BME280;4798;41.574;23.734;2023-04-19T03:25:58;94777.41;;;11.12;100.00
9521;BME280;4798;41.574;23.734;2023-04-19T03:28:26;94770.81;;;11.09;100.00
9521;BME280;4798;41.574;23.734;2023-04-19T03:30:55;94772.25;;;11.20;100.00
9521;BME280;4798;41.574;23.734;2023-04-19T03:33:23;94778.34;;;11.21;100.00
9521;BME280;4798;41.574;23.734;2023-04-19T03:35:51;94776.63;;;11.11;100.00
9521;BME280;4798;41.574;23.734;2023-04-19T03:38:20;94783.50;;;11.12;100.00
9521;BME280;4798;41.574;23.734;2023-04-19T03:40:48;94772.00;;;10.98;100.00
9521;BME280;4798;41.574;23.734;2023-04-19T03:43:18;94784.88;;;11.10;100.00
9521;BME280;4798;41.574;23.734;2023-04-19T03:45:46;94783.06;;;11.05;100.00
9521;BME280;4798;41.574;23.734;2023-04-19T03:48:15;94782.78;;;10.83;100.00
9521;BME280;4798;41.574;23.734;2023-04-19T03:50:43;94785.50;;;10.78;100.00
9521;BME280;4798;41.574;23.734;2023-04-19T03:53:11;94765.63;;;10.99;100.00
9521;BME280;4798;41.574;23.734;2023-04-19T03:55:39;94787.09;;;11.21;100.00
9521;BME280;4798;41.574;23.734;2023-04-19T03:58:08;94786.16;;;11.31;100.00
9521;BME280;4798;41.574;23.734;2023-04-19T04:00:38;94782.31;;;11.42;100.00
9521;BME280;4798;41.574;23.734;2023-04-19T04:03:06;94793.63;;;11.47;100.00
9521;BME280;4798;41.574;23.734;2023-04-19T04:05:35;94790.09;;;11.33;100.00
9521;BME280;4798;41.574;23.734;2023-04-19T04:08:04;94765.34;;;11.01;100.00
9521;BME280;4798;41.574;23.734;2023-04-19T04:10:32;94757.00;;;11.12;100.00
9521;BME280;4798;41.574;23.734;2023-04-19T04:13:00;94790.56;;;11.40;100.00
9521;BME280;4798;41.574;23.734;2023-04-19T04:15:29;94797.50;;;11.36;100.00
9521;BME280;4798;41.574;23.734;2023-04-19T04:17:58;94810.03;;;11.12;100.00
9521;BME280;4798;41.574;23.734;2023-04-19T04:20:27;94793.50;;;11.20;100.00
9521;BME280;4798;41.574;23.734;2023-04-19T04:22:55;94803.44;;;11.28;100.00
9521;BME280;4798;41.574;23.734;2023-04-19T04:25:23;94805.47;;;11.36;100.00
9521;BME280;4798;41.574;23.734;2023-04-19T04:27:52;94797.44;;;11.41;100.00
9521;BME280;4798;41.574;23.734;2023-04-19T04:30:20;94804.81;;;11.44;100.00
9521;BME280;4798;41.574;23.734;2023-04-19T04:32:50;94801.44;;;11.20;100.00
9521;BME280;4798;41.574;23.734;2023-04-19T04:35:20;94795.16;;;11.35;100.00
9521;BME280;4798;41.574;23.734;2023-04-19T04:37:49;94796.78;;;11.31;100.00
9521;BME280;4798;41.574;23.734;2023-04-19T04:40:20;94791.06;;;11.61;100.00
9521;BME280;4798;41.574;23.734;2023-04-19T04:42:48;94794.22;;;11.44;100.00
9521;BME280;4798;41.574;23.734;2023-04-19T04:45:18;94799.38;;;11.55;100.00
9521;BME280;4798;41.574;23.734;2023-04-19T04:47:47;94800.44;;;11.54;100.00
9521;BME280;4798;41.574;23.734;2023-04-19T04:50:15;94803.97;;;11.49;100.00
9521;BME280;4798;41.574;23.734;2023-04-19T04:52:45;94797.72;;;11.59;100.00
9521;BME280;4798;41.574;23.734;2023-04-19T04:55:13;94795.66;;;11.56;100.00
9521;BME280;4798;41.574;23.734;2023-04-19T04:57:42;94790.28;;;11.61;100.00
9521;BME280;4798;41.574;23.734;2023-04-19T05:00:11;94753.41;;;11.40;100.00
9521;BME280;4798;41.574;23.734;2023-04-19T05:02:40;94797.63;;;11.69;100.00
9521;BME280;4798;41.574;23.734;2023-04-19T05:05:08;94795.78;;;11.45;100.00
9521;BME280;4798;41.574;23.734;2023-04-19T05:07:38;94797.66;;;11.45;100.00
9521;BME280;4798;41.574;23.734;2023-04-19T05:10:09;94794.97;;;11.69;100.00
9521;BME280;4798;41.574;23.734;2023-04-19T05:12:37;94797.53;;;11.74;100.00
9521;BME280;4798;41.574;23.734;2023-04-19T05:15:06;94796.50;;;11.88;100.00
9521;BME280;4798;41.574;23.734;2023-04-19T05:17:35;94797.97;;;11.81;100.00
9521;BME280;4798;41.574;23.734;2023-04-19T05:20:04;94795.56;;;11.98;100.00
9521;BME280;4798;41.574;23.734;2023-04-19T05:22:33;94797.72;;;11.96;100.00
9521;BME280;4798;41.574;23.734;2023-04-19T05:25:01;94802.81;;;11.92;100.00
9521;BME280;4798;41.574;23.734;2023-04-19T05:27:31;94795.78;;;12.01;100.00
9521;BME280;4798;41.574;23.734;2023-04-19T05:29:59;94803.47;;;11.66;100.00
9521;BME280;4798;41.574;23.734;2023-04-19T05:32:27;94804.34;;;11.61;100.00
9521;BME280;4798;41.574;23.734;2023-04-19T05:34:56;94808.91;;;11.56;100.00
9521;BME280;4798;41.574;23.734;2023-04-19T05:37:24;94807.78;;;11.43;100.00
9521;BME280;4798;41.574;23.734;2023-04-19T05:39:52;94811.47;;;11.23;100.00
9521;BME280;4798;41.574;23.734;2023-04-19T05:42:20;94807.03;;;11.37;100.00
9521;BME280;4798;41.574;23.734;2023-04-19T05:44:50;94807.06;;;11.75;100.00
9521;BME280;4798;41.574;23.734;2023-04-19T05:47:18;94808.28;;;11.82;100.00
9521;BME280;4798;41.574;23.734;2023-04-19T05:49:47;94802.88;;;11.87;100.00
9521;BME280;4798;41.574;23.734;2023-04-19T05:52:15;94811.00;;;11.77;100.00
9521;BME280;4798;41.574;23.734;2023-04-19T05:54:43;94809.91;;;11.60;100.00
9521;BME280;4798;41.574;23.734;2023-04-19T05:57:12;94813.59;;;11.64;100.00
9521;BME280;4798;41.574;23.734;2023-04-19T05:59:41;94811.88;;;11.73;100.00
9521;BME280;4798;41.574;23.734;2023-04-19T06:02:11;94816.25;;;11.64;100.00
9521;BME280;4798;41.574;23.734;2023-04-19T06:04:39;94804.91;;;11.77;100.00
9521;BME280;4798;41.574;23.734;2023-04-19T06:07:08;94815.22;;;11.97;100.00
9521;BME280;4798;41.574;23.734;2023-04-19T06:09:56;94810.09;;;12.19;100.00
9521;BME280;4798;41.574;23.734;2023-04-19T06:12:24;94806.66;;;12.32;100.00
9521;BME280;4798;41.574;23.734;2023-04-19T06:14:53;94825.50;;;12.17;100.00
9521;BME280;4798;41.574;23.734;2023-04-19T06:17:23;94817.97;;;12.24;100.00
9521;BME280;4798;41.574;23.734;2023-04-19T06:19:51;94814.00;;;12.67;100.00
9521;BME280;4798;41.574;23.734;2023-04-19T06:22:20;94758.47;;;12.52;100.00
9521;BME280;4798;41.574;23.734;2023-04-19T06:24:48;94806.75;;;13.14;100.00
9521;BME280;4798;41.574;23.734;2023-04-19T06:27:17;94801.97;;;13.52;100.00
9521;BME280;4798;41.574;23.734;2023-04-19T06:29:45;94802.13;;;13.69;100.00
9521;BME280;4798;41.574;23.734;2023-04-19T06:32:16;94802.19;;;13.55;100.00
9521;BME280;4798;41.574;23.734;2023-04-19T06:34:46;94791.38;;;13.38;100.00
9521;BME280;4798;41.574;23.734;2023-04-19T06:37:14;94793.63;;;13.80;100.00
9521;BME280;4798;41.574;23.734;2023-04-19T06:39:42;94799.44;;;14.05;100.00
9521;BME280;4798;41.574;23.734;2023-04-19T06:42:11;94735.22;;;14.15;100.00
9521;BME280;4798;41.574;23.734;2023-04-19T06:44:39;94799.91;;;14.90;97.96
9521;BME280;4798;41.574;23.734;2023-04-19T06:47:08;94794.59;;;14.90;97.71
9521;BME280;4798;41.574;23.734;2023-04-19T06:49:36;94752.13;;;14.63;93.19
9521;BME280;4798;41.574;23.734;2023-04-19T06:52:06;94799.91;;;15.38;90.68
9521;BME280;4798;41.574;23.734;2023-04-19T06:54:34;94795.44;;;15.56;87.35
9521;BME280;4798;41.574;23.734;2023-04-19T06:57:03;94797.78;;;16.00;82.82
9521;BME280;4798;41.574;23.734;2023-04-19T06:59:31;94797.63;;;16.14;84.79
9521;BME280;4798;41.574;23.734;2023-04-19T07:01:59;94790.72;;;16.21;82.23
9521;BME280;4798;41.574;23.734;2023-04-19T07:04:28;94787.31;;;16.67;80.73
9521;BME280;4798;41.574;23.734;2023-04-19T07:06:56;94787.34;;;16.59;78.56
9521;BME280;4798;41.574;23.734;2023-04-19T07:09:26;94794.78;;;16.91;74.91
9521;BME280;4798;41.574;23.734;2023-04-19T07:11:55;94787.88;;;17.48;72.18
9521;BME280;4798;41.574;23.734;2023-04-19T07:14:25;94789.44;;;17.99;70.00
9521;BME280;4798;41.574;23.734;2023-04-19T07:16:53;94785.75;;;18.57;66.67
9521;BME280;4798;41.574;23.734;2023-04-19T07:19:22;94788.53;;;17.95;67.95
9521;BME280;4798;41.574;23.734;2023-04-19T07:21:50;94789.28;;;17.54;68.72
9521;BME280;4798;41.574;23.734;2023-04-19T07:24:19;94785.38;;;17.43;71.57
9521;BME280;4798;41.574;23.734;2023-04-19T07:26:49;94791.16;;;17.83;71.95
9521;BME280;4798;41.574;23.734;2023-04-19T07:29:17;94783.38;;;17.90;70.86
9521;BME280;4798;41.574;23.734;2023-04-19T07:31:45;94788.47;;;18.36;69.63
9521;BME280;4798;41.574;23.734;2023-04-19T07:34:14;94781.66;;;17.86;69.17
9521;BME280;4798;41.574;23.734;2023-04-19T07:36:43;94781.56;;;18.15;70.66
9521;BME280;4798;41.574;23.734;2023-04-19T07:39:11;94788.59;;;18.40;67.11
9521;BME280;4798;41.574;23.734;2023-04-19T07:41:39;94789.88;;;18.55;66.92
9521;BME280;4798;41.574;23.734;2023-04-19T07:44:09;94783.28;;;18.52;66.99
9521;BME280;4798;41.574;23.734;2023-04-19T07:46:40;94789.81;;;18.42;67.36
9521;BME280;4798;41.574;23.734;2023-04-19T07:49:10;94786.28;;;19.08;64.83
9521;BME280;4798;41.574;23.734;2023-04-19T07:51:38;94782.97;;;18.54;66.95
9521;BME280;4798;41.574;23.734;2023-04-19T07:54:06;94786.91;;;18.68;66.81
9521;BME280;4798;41.574;23.734;2023-04-19T07:56:36;94784.00;;;19.82;68.37
9521;BME280;4798;41.574;23.734;2023-04-19T07:59:04;94786.16;;;20.87;67.16
9521;BME280;4798;41.574;23.734;2023-04-19T08:01:36;94775.81;;;20.74;58.84
9521;BME280;4798;41.574;23.734;2023-04-19T08:04:05;94785.41;;;20.59;61.56
9521;BME280;4798;41.574;23.734;2023-04-19T08:06:34;94780.84;;;21.53;59.08
9521;BME280;4798;41.574;23.734;2023-04-19T08:09:05;94769.28;;;20.32;58.83
9521;BME280;4798;41.574;23.734;2023-04-19T08:11:33;94777.56;;;20.39;59.89
9521;BME280;4798;41.574;23.734;2023-04-19T08:14:02;94769.22;;;20.28;59.85
9521;BME280;4798;41.574;23.734;2023-04-19T08:16:51;94775.81;;;21.52;56.96
9521;BME280;4798;41.574;23.734;2023-04-19T08:19:23;94773.63;;;21.58;56.00
9521;BME280;4798;41.574;23.734;2023-04-19T08:21:51;94765.00;;;22.83;56.03
9521;BME280;4798;41.574;23.734;2023-04-19T08:24:19;94749.94;;;23.04;52.33
9521;BME280;4798;41.574;23.734;2023-04-19T08:26:47;94718.75;;;21.50;55.59
9521;BME280;4798;41.574;23.734;2023-04-19T08:29:20;94755.94;;;20.94;55.51
9521;BME280;4798;41.574;23.734;2023-04-19T08:31:49;94756.59;;;22.27;52.87
9521;BME280;4798;41.574;23.734;2023-04-19T08:34:18;94750.31;;;23.52;52.20
9521;BME280;4798;41.574;23.734;2023-04-19T08:36:47;94742.81;;;22.32;53.42
9521;BME280;4798;41.574;23.734;2023-04-19T08:39:28;94744.81;;;21.96;52.21
9521;BME280;4798;41.574;23.734;2023-04-19T08:42:03;94755.47;;;22.28;51.51
9521;BME280;4798;41.574;23.734;2023-04-19T08:44:50;94739.50;;;23.52;51.10
9521;BME280;4798;41.574;23.734;2023-04-19T08:47:40;94739.66;;;23.13;50.60
9521;BME280;4798;41.574;23.734;2023-04-19T08:50:27;94737.66;;;22.65;51.32
9521;BME280;4798;41.574;23.734;2023-04-19T08:53:05;94738.84;;;22.06;53.10
9521;BME280;4798;41.574;23.734;2023-04-19T08:55:50;94735.66;;;21.00;54.11
9521;BME280;4798;41.574;23.734;2023-04-19T08:58:40;94742.25;;;20.56;56.72
9521;BME280;4798;41.574;23.734;2023-04-19T09:01:11;94748.69;;;19.32;56.87
9521;BME280;4798;41.574;23.734;2023-04-19T09:03:59;94736.66;;;20.05;56.89
9521;BME280;4798;41.574;23.734;2023-04-19T09:06:48;94742.84;;;19.94;56.05
9521;BME280;4798;41.574;23.734;2023-04-19T09:09:19;94735.59;;;19.82;57.35
9521;BME280;4798;41.574;23.734;2023-04-19T09:11:50;94737.69;;;20.01;54.93
9521;BME280;4798;41.574;23.734;2023-04-19T09:14:20;94737.50;;;19.42;54.05
9521;BME280;4798;41.574;23.734;2023-04-19T09:16:49;94737.03;;;18.91;53.87
9521;BME280;4798;41.574;23.734;2023-04-19T09:19:18;94739.59;;;19.36;53.42
9521;BME280;4798;41.574;23.734;2023-04-19T09:21:53;94731.94;;;20.73;53.88
9521;BME280;4798;41.574;23.734;2023-04-19T09:24:36;94741.69;;;19.67;55.07
9521;BME280;4798;41.574;23.734;2023-04-19T09:27:08;94735.34;;;20.27;55.24
9521;BME280;4798;41.574;23.734;2023-04-19T09:29:38;94739.97;;;20.14;54.61
9521;BME280;4798;41.574;23.734;2023-04-19T09:32:06;94692.50;;;20.65;54.21
9521;BME280;4798;41.574;23.734;2023-04-19T09:34:35;94745.69;;;19.85;53.59
9521;BME280;4798;41.574;23.734;2023-04-19T09:37:14;94741.31;;;19.05;52.55
9521;BME280;4798;41.574;23.734;2023-04-19T09:40:20;94748.22;;;19.30;54.78
9521;BME280;4798;41.574;23.734;2023-04-19T09:42:49;94739.47;;;19.33;54.09
9521;BME280;4798;41.574;23.734;2023-04-19T09:45:20;94745.22;;;19.07;52.08
9521;BME280;4798;41.574;23.734;2023-04-19T09:48:01;94698.22;;;18.89;53.33
9521;BME280;4798;41.574;23.734;2023-04-19T09:50:30;94749.75;;;19.67;50.43
9521;BME280;4798;41.574;23.734;2023-04-19T09:53:09;94744.44;;;19.43;49.67
9521;BME280;4798;41.574;23.734;2023-04-19T09:55:40;94746.06;;;19.72;50.07
9521;BME280;4798;41.574;23.734;2023-04-19T09:58:26;94717.22;;;19.32;50.78
9521;BME280;4798;41.574;23.734;2023-04-19T10:01:15;94741.06;;;19.46;51.87
9521;BME280;4798;41.574;23.734;2023-04-19T10:03:48;94663.84;;;19.19;49.79
9521;BME280;4798;41.574;23.734;2023-04-19T10:06:18;94719.56;;;19.46;50.41
9521;BME280;4798;41.574;23.734;2023-04-19T10:08:53;94718.25;;;19.80;50.28
9521;BME280;4798;41.574;23.734;2023-04-19T10:11:22;94732.06;;;19.94;49.89
9521;BME280;4798;41.574;23.734;2023-04-19T10:13:56;94724.50;;;19.44;50.62
9521;BME280;4798;41.574;23.734;2023-04-19T10:16:25;94725.94;;;20.49;50.38
9521;BME280;4798;41.574;23.734;2023-04-19T10:18:54;94696.50;;;20.87;48.44
9521;BME280;4798;41.574;23.734;2023-04-19T10:21:23;94725.66;;;20.54;51.00
9521;BME280;4798;41.574;23.734;2023-04-19T10:23:55;94725.16;;;20.20;50.04
9521;BME280;4798;41.574;23.734;2023-04-19T10:26:24;94725.94;;;20.21;50.02
9521;BME280;4798;41.574;23.734;2023-04-19T10:28:53;94679.19;;;20.88;48.78
9521;BME280;4798;41.574;23.734;2023-04-19T10:31:24;94726.09;;;20.56;48.77
9521;BME280;4798;41.574;23.734;2023-04-19T10:33:53;94720.59;;;21.30;48.51
9521;BME280;4798;41.574;23.734;2023-04-19T10:36:26;94702.41;;;22.16;47.41
9521;BME280;4798;41.574;23.734;2023-04-19T10:38:56;94709.84;;;21.84;47.39
9521;BME280;4798;41.574;23.734;2023-04-19T10:41:57;94709.97;;;20.87;49.14
9521;BME280;4798;41.574;23.734;2023-04-19T10:44:26;94713.19;;;20.77;48.58
9521;BME280;4798;41.574;23.734;2023-04-19T10:46:54;94724.00;;;19.66;50.94
9521;BME280;4798;41.574;23.734;2023-04-19T10:49:22;94721.81;;;19.32;51.74
9521;BME280;4798;41.574;23.734;2023-04-19T10:51:51;94725.47;;;19.63;51.47
9521;BME280;4798;41.574;23.734;2023-04-19T10:54:29;94710.84;;;19.77;51.50
9521;BME280;4798;41.574;23.734;2023-04-19T10:56:59;94727.75;;;19.37;50.47
9521;BME280;4798;41.574;23.734;2023-04-19T10:59:29;94724.06;;;18.04;53.29
9521;BME280;4798;41.574;23.734;2023-04-19T11:01:59;94728.75;;;18.27;53.51
9521;BME280;4798;41.574;23.734;2023-04-19T11:07:40;94740.00;;;18.09;62.39
9521;BME280;4798;41.574;23.734;2023-04-19T11:10:10;94727.56;;;17.84;60.24
9521;BME280;4798;41.574;23.734;2023-04-19T11:12:42;94713.63;;;18.11;64.93
9521;BME280;4798;41.574;23.734;2023-04-19T11:15:11;94730.09;;;18.21;66.05
9521;BME280;4798;41.574;23.734;2023-04-19T11:17:40;94682.72;;;17.93;64.48
9521;BME280;4798;41.574;23.734;2023-04-19T11:20:09;94733.53;;;18.22;63.74
9521;BME280;4798;41.574;23.734;2023-04-19T11:22:39;94729.28;;;18.54;63.32
9521;BME280;4798;41.574;23.734;2023-04-19T11:25:11;94725.91;;;19.66;60.31
9521;BME280;4798;41.574;23.734;2023-04-19T11:27:40;94686.50;;;20.13;59.01
9521;BME280;4798;41.574;23.734;2023-04-19T11:30:10;94722.16;;;20.38;55.89
9521;BME280;4798;41.574;23.734;2023-04-19T11:32:44;94714.03;;;20.22;54.02
9521;BME280;4798;41.574;23.734;2023-04-19T11:35:16;94708.72;;;20.38;53.87
9521;BME280;4798;41.574;23.734;2023-04-19T11:37:45;94675.13;;;20.19;53.27
9521;BME280;4798;41.574;23.734;2023-04-19T11:40:16;94701.66;;;21.62;50.94
9521;BME280;4798;41.574;23.734;2023-04-19T11:42:45;94699.94;;;21.34;50.67
9521;BME280;4798;41.574;23.734;2023-04-19T11:45:24;94700.59;;;22.43;51.95
9521;BME280;4798;41.574;23.734;2023-04-19T11:47:57;94690.75;;;23.22;46.80
9521;BME280;4798;41.574;23.734;2023-04-19T11:50:33;94700.28;;;23.38;48.12
9521;BME280;4798;41.574;23.734;2023-04-19T11:53:12;94680.59;;;20.51;49.81
9521;BME280;4798;41.574;23.734;2023-04-19T11:55:46;94700.91;;;19.37;51.93
9521;BME280;4798;41.574;23.734;2023-04-19T11:58:25;94655.13;;;19.89;53.11
9521;BME280;4798;41.574;23.734;2023-04-19T12:00:55;94691.72;;;20.21;51.24
9521;BME280;4798;41.574;23.734;2023-04-19T12:03:26;94686.34;;;19.78;51.63
9521;BME280;4798;41.574;23.734;2023-04-19T12:05:57;94695.06;;;19.11;52.84
9521;BME280;4798;41.574;23.734;2023-04-19T12:08:29;94672.97;;;19.54;53.17
9521;BME280;4798;41.574;23.734;2023-04-19T12:11:00;94692.19;;;19.04;52.53
9521;BME280;4798;41.574;23.734;2023-04-19T12:13:29;94687.34;;;19.22;53.04
9521;BME280;4798;41.574;23.734;2023-04-19T12:15:58;94685.41;;;19.46;53.06
9521;BME280;4798;41.574;23.734;2023-04-19T12:18:27;94683.88;;;18.49;53.15
9521;BME280;4798;41.574;23.734;2023-04-19T12:20:56;94648.97;;;18.36;55.35
9521;BME280;4798;41.574;23.734;2023-04-19T12:23:27;94670.31;;;19.18;51.87
9521;BME280;4798;41.574;23.734;2023-04-19T12:25:55;94674.97;;;19.33;51.83
9521;BME280;4798;41.574;23.734;2023-04-19T12:28:25;94661.66;;;19.76;51.92
9521;BME280;4798;41.574;23.734;2023-04-19T12:30:53;94662.63;;;19.68;51.11
9521;BME280;4798;41.574;23.734;2023-04-19T12:33:21;94646.50;;;19.56;51.23
9521;BME280;4798;41.574;23.734;2023-04-19T12:35:50;94660.59;;;19.13;52.16
9521;BME280;4798;41.574;23.734;2023-04-19T12:38:18;94661.53;;;18.12;53.18
9521;BME280;4798;41.574;23.734;2023-04-19T12:40:46;94658.25;;;17.94;53.68
9521;BME280;4798;41.574;23.734;2023-04-19T12:43:15;94658.81;;;18.00;54.67
9521;BME280;4798;41.574;23.734;2023-04-19T12:45:44;94649.97;;;18.44;54.80
9521;BME280;4798;41.574;23.734;2023-04-19T12:48:13;94652.59;;;18.08;53.92
9521;BME280;4798;41.574;23.734;2023-04-19T12:50:41;94653.19;;;18.25;53.93
9521;BME280;4798;41.574;23.734;2023-04-19T12:53:09;94615.47;;;17.98;53.79
9521;BME280;4798;41.574;23.734;2023-04-19T12:55:37;94642.09;;;18.03;54.81
9521;BME280;4798;41.574;23.734;2023-04-19T12:58:06;94665.09;;;17.30;56.22
9521;BME280;4798;41.574;23.734;2023-04-19T13:00:34;94672.34;;;17.29;57.25
9521;BME280;4798;41.574;23.734;2023-04-19T13:03:04;94664.56;;;17.36;57.17
9521;BME280;4798;41.574;23.734;2023-04-19T13:05:33;94673.25;;;17.33;57.07
9521;BME280;4798;41.574;23.734;2023-04-19T13:08:01;94662.28;;;17.47;55.73
9521;BME280;4798;41.574;23.734;2023-04-19T13:10:29;94658.56;;;17.39;55.94
9521;BME280;4798;41.574;23.734;2023-04-19T13:12:58;94659.34;;;17.19;55.03
9521;BME280;4798;41.574;23.734;2023-04-19T13:15:26;94661.41;;;16.93;56.74
9521;BME280;4798;41.574;23.734;2023-04-19T13:17:55;94661.19;;;17.06;56.45
9521;BME280;4798;41.574;23.734;2023-04-19T13:20:25;94627.09;;;16.66;58.08
9521;BME280;4798;41.574;23.734;2023-04-19T13:22:53;94671.44;;;16.75;56.54
9521;BME280;4798;41.574;23.734;2023-04-19T13:25:22;94672.44;;;16.62;57.03